This is the latest recevied weather packets stored in our database for station/object KE8ZLU. If no packets are shown the sender has not sent any weather packets the latest 1 day(s).
| Time | Temp. | Humidity | Pressure | Rain* | Wind** | Luminosity | Snow |
|---|---|---|---|---|---|---|---|
| 1836274702 | 17.78° C | 82% | 1022.1 hPa | 0 mm | 1.34 m/s, 97° | 0 W/m² | - |
| 1836274555 | 17.22° C | 82% | 1022.1 hPa | 0 mm | 0.89 m/s, 102° | 0 W/m² | - |
| 1836274400 | 17.78° C | 83% | 1022.1 hPa | 0 mm | 1.34 m/s, 85° | 0 W/m² | - |
| 1836274253 | 17.78° C | 82% | 1022.1 hPa | 0 mm | 0.89 m/s, 104° | 0 W/m² | - |
| 1836274098 | 17.78° C | 82% | 1022.2 hPa | 0 mm | 1.34 m/s, 97° | 0 W/m² | - |
| 1778060507 | 5° C | 70% | 1011.3 hPa | 0 mm | 0.45 m/s, 304° | 0 W/m² | - |
| 1778060205 | 5° C | 71% | 1011.2 hPa | 0 mm | 0 m/s | 0 W/m² | - |
| 1778059902 | 5.56° C | 71% | 1011 hPa | 0 mm | 0.45 m/s, 309° | 0 W/m² | - |
| 1778059600 | 5.56° C | 70% | 1011.1 hPa | 0 mm | 0.45 m/s, 304° | 0 W/m² | - |
| 1778059297 | 6.11° C | 68% | 1010.8 hPa | 0 mm | 0.45 m/s, 312° | 0 W/m² | - |
| 1778058994 | 6.11° C | 67% | 1010.7 hPa | 0 mm | 0.45 m/s, 346° | 0 W/m² | - |
| 1778058692 | 6.11° C | 67% | 1010.7 hPa | 0 mm | 0 m/s | 0 W/m² | - |
| 1778058390 | 6.11° C | 66% | 1010.6 hPa | 0 mm | 0 m/s | 0 W/m² | - |
| 1778058086 | 6.11° C | 66% | 1010.6 hPa | 0 mm | 0.89 m/s, 331° | 0 W/m² | - |
| 1778057783 | 6.11° C | 67% | 1010.9 hPa | 0 mm | 0.89 m/s, 321° | 0 W/m² | - |
| 1778057479 | 6.67° C | 67% | 1010.8 hPa | 0 mm | 0.45 m/s, 318° | 0 W/m² | - |
| 1778057176 | 6.67° C | 66% | 1010.9 hPa | 0 mm | 0 m/s | 0 W/m² | - |
| 1778056872 | 6.67° C | 66% | 1010.6 hPa | 0 mm | 0 m/s | 0 W/m² | - |
| 1778056570 | 6.67° C | 67% | 1011 hPa | 0 mm | 0.45 m/s, 340° | 0 W/m² | - |
| 1778056267 | 6.67° C | 65% | 1010.9 hPa | 0 mm | 1.79 m/s, 321° | 0 W/m² | - |
| 1778055963 | 6.67° C | 66% | 1010.5 hPa | 0 mm | 0.89 m/s, 339° | 0 W/m² | - |
| 1778055659 | 6.67° C | 66% | 1010.7 hPa | 0 mm | 0.89 m/s, 351° | 0 W/m² | - |
| 1778055357 | 6.67° C | 66% | 1010.7 hPa | 0 mm | 0.45 m/s, 337° | 0 W/m² | - |
| 1778055055 | 6.67° C | 66% | 1010.9 hPa | 0 mm | 1.34 m/s, 315° | 0 W/m² | - |
| 1778054752 | 6.67° C | 66% | 1010.6 hPa | 0 mm | 0.89 m/s, 328° | 0 W/m² | - |
* Rain latest hour (hover to see other rain measurements)
** Current wind speed in m/s (hover to see current wind gust speed)